createdAt,value
2023-03-14T00:01:57.219Z,12.37
2023-03-14T00:07:01.067Z,11.82
2023-03-14T00:12:05.093Z,11.55
2023-03-14T00:17:06.832Z,11.90
2023-03-14T00:22:09.211Z,11.50
2023-03-14T00:27:12.760Z,12.15
2023-03-14T00:32:14.933Z,10.48
2023-03-14T00:37:17.222Z,11.38
2023-03-14T00:42:20.429Z,10.75
2023-03-14T00:47:22.171Z,11.75
2023-03-14T00:52:23.955Z,10.38
2023-03-14T00:57:27.139Z,11.80
2023-03-14T01:02:29.563Z,12.02
2023-03-14T01:07:31.390Z,10.05
2023-03-14T01:12:34.570Z,10.73
2023-03-14T01:17:36.679Z,11.57
2023-03-14T01:22:39.379Z,11.18
2023-03-14T01:27:42.573Z,11.75
2023-03-14T01:32:44.350Z,11.18
2023-03-14T01:37:46.132Z,11.90
2023-03-14T01:42:55.754Z,11.30
2023-03-14T01:47:57.480Z,10.73
2023-03-14T01:52:59.255Z,11.75
2023-03-14T01:59:14.895Z,11.30
2023-03-14T02:04:18.423Z,12.13
2023-03-14T02:09:20.956Z,11.77
2023-03-14T02:14:31.260Z,10.52
2023-03-14T02:19:45.477Z,12.23
2023-03-14T02:24:58.162Z,11.32
2023-03-14T02:30:05.047Z,11.60
2023-03-14T02:35:10.311Z,11.02
2023-03-14T02:40:12.675Z,11.10
2023-03-14T02:45:41.387Z,11.43
2023-03-14T02:50:43.957Z,11.27
2023-03-14T02:55:47.047Z,12.37
2023-03-14T03:00:50.401Z,12.50
2023-03-14T03:05:54.149Z,11.65
2023-03-14T03:10:57.579Z,13.40
2023-03-14T03:16:00.794Z,11.40
2023-03-14T03:21:04.351Z,13.25
2023-03-14T03:26:06.691Z,11.57
2023-03-14T03:31:11.857Z,11.52
2023-03-14T03:36:13.687Z,12.23
2023-03-14T03:41:15.431Z,12.35
2023-03-14T03:46:18.689Z,11.65
2023-03-14T03:51:20.377Z,11.25
2023-03-14T03:56:22.110Z,11.90
2023-03-14T04:01:25.204Z,12.02
2023-03-14T04:06:27.186Z,12.48
2023-03-14T04:11:29.037Z,11.52
2023-03-14T04:16:32.333Z,11.48
2023-03-14T04:21:34.098Z,12.07
2023-03-14T04:26:35.904Z,11.98
2023-03-14T04:31:39.133Z,14.80
2023-03-14T04:36:40.951Z,12.45
2023-03-14T04:41:42.709Z,12.00
2023-03-14T04:46:46.229Z,12.57
2023-03-14T04:51:48.166Z,12.90
2023-03-14T04:56:49.906Z,11.80
2023-03-14T05:01:53.165Z,15.13
2023-03-14T05:06:54.839Z,11.98
2023-03-14T05:11:56.604Z,12.90
2023-03-14T05:16:59.695Z,15.10
2023-03-14T05:22:01.473Z,13.80
2023-03-14T05:27:03.542Z,13.02
2023-03-14T05:32:06.793Z,11.48
2023-03-14T05:37:08.753Z,11.65
2023-03-14T05:42:10.509Z,12.07
2023-03-14T05:47:13.680Z,10.02
2023-03-14T05:52:15.694Z,11.88
2023-03-14T05:57:17.467Z,12.32
2023-03-14T06:02:20.617Z,10.75
2023-03-14T06:07:22.430Z,11.43
2023-03-14T06:12:24.177Z,12.32
2023-03-14T06:17:27.298Z,11.07
2023-03-14T06:22:29.090Z,11.52
2023-03-14T06:27:30.858Z,12.25
2023-03-14T06:32:34.003Z,12.10
2023-03-14T06:37:35.878Z,11.48
2023-03-14T06:42:37.589Z,12.63
2023-03-14T06:47:40.848Z,11.80
2023-03-14T06:52:42.698Z,11.07
2023-03-14T06:57:44.805Z,11.05
2023-03-14T07:02:47.917Z,12.57
2023-03-14T07:07:49.671Z,10.90
2023-03-14T07:12:51.482Z,11.70
2023-03-14T07:17:54.626Z,12.80
2023-03-14T07:22:56.518Z,16.75
2023-03-14T07:27:58.244Z,11.80
2023-03-14T07:33:01.486Z,11.88
2023-03-14T07:38:03.263Z,11.65
2023-03-14T07:43:05.096Z,10.73
2023-03-14T07:48:08.341Z,11.48
2023-03-14T07:53:10.677Z,11.70
2023-03-14T07:58:12.533Z,11.38
2023-03-14T08:03:15.775Z,12.20
2023-03-14T08:08:17.980Z,12.25
2023-03-14T08:13:19.757Z,12.35
2023-03-14T08:18:22.920Z,10.10
2023-03-14T08:23:24.733Z,12.70
2023-03-14T08:28:26.520Z,12.65
2023-03-14T08:33:30.855Z,11.32
2023-03-14T08:38:32.608Z,11.43
2023-03-14T08:43:34.386Z,10.60
2023-03-14T08:48:37.580Z,11.75
2023-03-14T08:53:39.870Z,11.23
2023-03-14T08:58:41.637Z,13.07
2023-03-14T09:03:45.084Z,11.12
2023-03-14T09:08:46.894Z,10.93
2023-03-14T09:13:48.679Z,11.40
2023-03-14T09:18:51.849Z,11.35
2023-03-14T09:23:53.602Z,11.77
2023-03-14T09:28:58.213Z,12.30
2023-03-14T09:34:01.690Z,13.02
2023-03-14T09:39:03.689Z,12.05
2023-03-14T09:44:10.881Z,11.23
2023-03-14T09:49:20.601Z,11.73
2023-03-14T09:54:32.241Z,11.68
2023-03-14T09:59:36.025Z,12.37
2023-03-14T10:04:41.200Z,12.13
2023-03-14T10:14:48.910Z,12.85
2023-03-14T10:19:57.229Z,11.80
2023-03-14T10:25:05.777Z,12.25
2023-03-14T10:30:27.526Z,11.68
2023-03-14T10:35:35.947Z,12.27
2023-03-14T10:40:40.712Z,11.60
2023-03-14T10:45:43.611Z,11.98
2023-03-14T10:50:57.592Z,10.90
2023-03-14T10:56:04.148Z,12.15
2023-03-14T11:01:20.058Z,11.55
2023-03-14T11:06:28.524Z,10.73
2023-03-14T11:11:31.013Z,10.30
2023-03-14T11:16:40.115Z,11.88
2023-03-14T11:21:52.727Z,10.80
2023-03-14T11:27:00.595Z,12.55
2023-03-14T11:32:04.765Z,11.63
2023-03-14T11:37:14.537Z,11.35
2023-03-14T11:42:18.180Z,10.70
2023-03-14T11:47:26.662Z,11.38
2023-03-14T11:52:35.205Z,11.40
2023-03-14T11:57:37.582Z,12.02
2023-03-14T12:02:49.788Z,11.98
2023-03-14T12:08:20.131Z,10.80
2023-03-14T12:13:22.290Z,11.30
2023-03-14T12:18:29.244Z,11.80
2023-03-14T12:23:41.805Z,11.85
2023-03-14T12:28:45.654Z,12.43
2023-03-14T12:33:47.448Z,11.35
2023-03-14T12:39:11.248Z,10.93
2023-03-14T12:44:44.910Z,10.18
2023-03-14T12:49:48.858Z,12.27
2023-03-14T12:54:59.493Z,11.73
2023-03-14T13:00:02.492Z,11.12
2023-03-14T13:05:06.008Z,11.25
2023-03-14T13:10:23.147Z,10.50
2023-03-14T13:15:29.513Z,11.98
2023-03-14T13:20:36.518Z,10.82
2023-03-14T13:25:39.756Z,12.10
2023-03-14T13:30:43.849Z,12.48
2023-03-14T13:35:48.273Z,12.32
2023-03-14T13:40:52.801Z,11.90
2023-03-14T13:45:57.232Z,12.90
2023-03-14T13:51:02.428Z,12.37
2023-03-14T13:56:10.802Z,12.80
2023-03-14T14:01:16.347Z,11.57
2023-03-14T14:06:27.331Z,12.70
2023-03-14T14:11:48.799Z,12.02
2023-03-14T14:16:56.669Z,12.13
2023-03-14T14:21:58.746Z,12.18
2023-03-14T14:27:13.851Z,13.43
2023-03-14T14:32:16.475Z,12.43
2023-03-14T14:37:27.550Z,12.10
2023-03-14T14:42:41.957Z,12.63
2023-03-14T14:47:51.654Z,12.88
2023-03-14T14:53:49.873Z,12.95
2023-03-14T14:58:51.401Z,12.25
2023-03-14T15:03:54.660Z,12.02
2023-03-14T15:08:56.401Z,11.52
2023-03-14T15:13:59.647Z,11.85
2023-03-14T15:19:08.946Z,13.57
2023-03-14T15:24:16.850Z,11.75
2023-03-14T15:29:20.004Z,12.27
2023-03-14T15:34:21.709Z,12.00
2023-03-14T15:39:23.488Z,12.13
2023-03-14T15:44:26.639Z,13.88
2023-03-14T15:49:28.454Z,13.05
2023-03-14T15:54:30.133Z,11.73
2023-03-14T15:59:35.107Z,11.55
2023-03-14T16:09:38.366Z,12.52
2023-03-14T16:14:41.457Z,12.07
2023-03-14T16:19:43.298Z,13.65
2023-03-14T16:24:45.211Z,12.77
2023-03-14T16:29:55.922Z,13.80
2023-03-14T16:34:57.666Z,13.93
2023-03-14T16:40:12.093Z,12.52
2023-03-14T16:45:16.188Z,14.50
2023-03-14T16:50:18.393Z,13.40
2023-03-14T16:55:32.714Z,12.20
2023-03-14T17:00:35.894Z,13.27
2023-03-14T17:05:38.074Z,12.00
2023-03-14T17:10:40.028Z,13.48
2023-03-14T17:15:46.740Z,11.68
2023-03-14T17:20:52.190Z,12.65
2023-03-14T17:25:54.020Z,13.27
2023-03-14T17:31:05.439Z,12.63
2023-03-14T17:36:08.167Z,12.88
2023-03-14T17:41:11.736Z,13.65
2023-03-14T17:46:15.413Z,14.38
2023-03-14T17:51:47.089Z,13.62
2023-03-14T17:56:49.028Z,13.62
2023-03-14T18:01:52.554Z,13.45
2023-03-14T18:06:54.673Z,13.98
2023-03-14T18:12:07.112Z,13.05
2023-03-14T18:17:11.653Z,11.85
2023-03-14T18:22:13.728Z,12.57
2023-03-14T18:27:25.415Z,13.45
2023-03-14T18:32:28.703Z,13.90
2023-03-14T18:37:30.482Z,14.52
2023-03-14T18:42:32.308Z,14.00
2023-03-14T18:47:35.529Z,15.60
2023-03-14T18:52:37.258Z,17.17
2023-03-14T18:57:38.939Z,14.65
2023-03-14T19:02:42.081Z,17.60
2023-03-14T19:07:43.791Z,16.35
2023-03-14T19:12:47.567Z,19.15
2023-03-14T19:17:50.753Z,34.35
2023-03-14T19:22:52.424Z,25.15
2023-03-14T19:27:54.164Z,17.45
2023-03-14T19:32:57.436Z,22.10
2023-03-14T19:37:59.169Z,17.52
2023-03-14T19:43:01.051Z,16.30
2023-03-14T19:48:06.451Z,16.40
2023-03-14T19:53:08.225Z,20.15
2023-03-14T19:58:09.949Z,15.35
2023-03-14T20:03:12.945Z,15.98
2023-03-14T20:08:14.612Z,15.52
2023-03-14T20:13:21.841Z,16.37
2023-03-14T20:18:25.618Z,15.52
2023-03-14T20:23:28.168Z,15.95
2023-03-14T20:28:33.309Z,15.90
2023-03-14T20:33:36.496Z,16.67
2023-03-14T20:38:38.379Z,14.02
2023-03-14T20:43:40.131Z,16.58
2023-03-14T20:48:43.469Z,14.38
2023-03-14T20:53:45.210Z,15.80
2023-03-14T20:58:47.006Z,14.57
2023-03-14T21:03:50.070Z,17.67
2023-03-14T21:08:51.741Z,14.35
2023-03-14T21:13:53.411Z,14.75
2023-03-14T21:18:56.539Z,14.40
2023-03-14T21:23:58.284Z,15.38
2023-03-14T21:29:00.192Z,14.52
2023-03-14T21:34:03.248Z,14.95
2023-03-14T21:39:05.039Z,13.73
2023-03-14T21:44:06.878Z,14.15
2023-03-14T21:49:09.939Z,14.82
2023-03-14T21:54:12.244Z,22.30
2023-03-14T21:59:13.973Z,15.90
2023-03-14T22:04:17.069Z,16.17
2023-03-14T22:09:18.826Z,17.25
2023-03-14T22:14:20.850Z,19.17
2023-03-14T22:19:23.930Z,18.27
2023-03-14T22:24:25.847Z,15.75
2023-03-14T22:29:27.707Z,15.82
2023-03-14T22:34:31.254Z,14.23
2023-03-14T22:39:33.472Z,18.08
2023-03-14T22:44:35.212Z,15.50
2023-03-14T22:49:38.731Z,14.10
2023-03-14T22:54:40.511Z,14.73
2023-03-14T22:59:42.194Z,18.23
2023-03-14T23:04:45.348Z,17.75
2023-03-14T23:09:47.079Z,17.23
2023-03-14T23:14:48.887Z,16.23
2023-03-14T23:19:51.963Z,14.63
2023-03-14T23:24:53.733Z,14.10
2023-03-14T23:29:55.507Z,14.48
2023-03-14T23:34:58.708Z,15.52
2023-03-14T23:40:00.460Z,16.05
2023-03-14T23:45:02.285Z,15.52
2023-03-14T23:50:06.121Z,17.92
2023-03-14T23:55:08.648Z,17.77
